createdAt,value
2023-01-21T00:00:56.672Z,33.85
2023-01-21T00:03:23.875Z,32.92
2023-01-21T00:05:51.077Z,30.30
2023-01-21T00:08:17.505Z,34.65
2023-01-21T00:10:44.275Z,40.60
2023-01-21T00:13:10.699Z,32.65
2023-01-21T00:15:37.279Z,29.17
2023-01-21T00:18:03.979Z,33.60
2023-01-21T00:20:30.358Z,30.95
2023-01-21T00:22:56.811Z,30.85
2023-01-21T00:25:23.233Z,32.75
2023-01-21T00:27:49.955Z,35.42
2023-01-21T00:30:17.175Z,32.17
2023-01-21T00:32:43.771Z,29.05
2023-01-21T00:35:10.171Z,24.52
2023-01-21T00:37:36.635Z,26.27
2023-01-21T00:40:05.462Z,27.63
2023-01-21T00:42:31.969Z,30.88
2023-01-21T00:44:58.640Z,23.52
2023-01-21T00:47:25.159Z,33.28
2023-01-21T00:49:51.612Z,57.25
2023-01-21T00:52:18.101Z,47.13
2023-01-21T00:54:44.643Z,30.70
2023-01-21T00:57:11.142Z,37.28
2023-01-21T00:59:37.585Z,37.03
2023-01-21T01:02:03.953Z,35.33
2023-01-21T01:04:30.396Z,82.22
2023-01-21T01:06:57.216Z,80.45
2023-01-21T01:09:23.796Z,95.65
2023-01-21T01:11:50.228Z,47.20
2023-01-21T01:14:16.680Z,34.17
2023-01-21T01:16:43.122Z,30.05
2023-01-21T01:19:11.097Z,26.10
2023-01-21T01:21:37.532Z,24.98
2023-01-21T01:24:06.022Z,42.58
2023-01-21T01:26:35.428Z,69.60
2023-01-21T01:29:04.042Z,51.83
2023-01-21T01:31:30.643Z,30.08
2023-01-21T01:33:57.647Z,36.20
2023-01-21T01:36:24.821Z,37.25
2023-01-21T01:38:52.703Z,46.00
2023-01-21T01:41:23.145Z,32.00
2023-01-21T01:44:06.798Z,33.60
2023-01-21T01:46:35.561Z,32.58
2023-01-21T01:49:13.588Z,32.60
2023-01-21T01:51:51.383Z,29.85
2023-01-21T01:54:23.255Z,52.08
2023-01-21T01:56:54.866Z,52.30
2023-01-21T02:01:47.885Z,56.03
2023-01-21T02:04:20.754Z,53.65
2023-01-21T02:06:48.582Z,59.45
2023-01-21T02:09:15.006Z,58.83
2023-01-21T02:11:41.609Z,30.58
2023-01-21T02:14:08.152Z,32.95
2023-01-21T02:16:46.163Z,33.75
2023-01-21T02:19:18.595Z,31.40
2023-01-21T02:21:59.119Z,39.85
2023-01-21T02:25:01.866Z,95.45
2023-01-21T02:27:40.972Z,40.78
2023-01-21T02:30:37.327Z,70.45
2023-01-21T02:33:26.077Z,46.30
2023-01-21T02:36:16.643Z,35.97
2023-01-21T02:39:06.908Z,33.60
2023-01-21T02:42:07.215Z,47.85
2023-01-21T02:44:57.696Z,36.97
2023-01-21T02:47:37.216Z,45.25
2023-01-21T02:50:11.817Z,29.77
2023-01-21T02:52:38.219Z,43.00
2023-01-21T02:55:05.012Z,27.45
2023-01-21T02:57:47.334Z,27.85
2023-01-21T03:00:24.361Z,29.88
2023-01-21T03:03:16.034Z,27.42
2023-01-21T03:06:12.950Z,27.48
2023-01-21T03:08:39.619Z,30.90
2023-01-21T03:11:05.975Z,28.88
2023-01-21T03:13:57.849Z,26.38
2023-01-21T03:19:14.868Z,23.23
2023-01-21T03:21:42.562Z,28.70
2023-01-21T03:24:11.252Z,30.58
2023-01-21T03:26:43.950Z,30.00
2023-01-21T03:29:20.582Z,24.98
2023-01-21T03:31:51.288Z,28.88
2023-01-21T03:34:20.106Z,29.20
2023-01-21T03:37:04.883Z,31.23
2023-01-21T03:40:02.005Z,25.92
2023-01-21T03:42:29.308Z,31.90
2023-01-21T03:44:56.165Z,27.45
2023-01-21T03:47:34.410Z,26.20
2023-01-21T03:50:17.252Z,29.48
2023-01-21T03:52:44.907Z,26.63
2023-01-21T03:55:13.528Z,29.58
2023-01-21T03:57:40.061Z,25.42
2023-01-21T04:00:07.663Z,29.25
2023-01-21T04:02:34.083Z,25.05
2023-01-21T04:05:00.522Z,29.42
2023-01-21T04:07:26.972Z,27.45
2023-01-21T04:09:53.435Z,29.63
2023-01-21T04:12:19.858Z,30.13
2023-01-21T04:14:46.247Z,33.33
2023-01-21T04:17:12.755Z,25.92
2023-01-21T04:19:39.149Z,27.02
2023-01-21T04:22:05.560Z,31.67
2023-01-21T04:24:34.539Z,30.40
2023-01-21T04:27:01.136Z,37.95
2023-01-21T04:29:27.573Z,30.30
2023-01-21T04:31:54.040Z,28.52
2023-01-21T04:34:20.566Z,30.17
2023-01-21T04:36:47.018Z,25.23
2023-01-21T04:39:13.513Z,29.08
2023-01-21T04:41:39.921Z,28.50
2023-01-21T04:44:06.462Z,27.80
2023-01-21T04:46:32.864Z,29.02
2023-01-21T04:48:59.409Z,26.45
2023-01-21T04:51:25.829Z,23.60
2023-01-21T04:53:52.293Z,33.85
2023-01-21T04:56:18.737Z,22.83
2023-01-21T04:58:45.123Z,24.73
2023-01-21T05:01:11.559Z,27.67
2023-01-21T05:03:37.971Z,22.55
2023-01-21T05:06:04.546Z,26.60
2023-01-21T05:08:30.989Z,27.25
2023-01-21T05:10:57.406Z,23.95
2023-01-21T05:13:23.821Z,20.55
2023-01-21T05:15:50.386Z,22.50
2023-01-21T05:18:16.874Z,21.95
2023-01-21T05:20:43.281Z,19.63
2023-01-21T05:23:09.677Z,21.75
2023-01-21T05:25:36.131Z,25.17
2023-01-21T05:28:02.537Z,23.60
2023-01-21T05:30:28.944Z,18.00
2023-01-21T05:32:57.233Z,24.33
2023-01-21T05:35:24.240Z,20.35
2023-01-21T05:37:50.789Z,20.05
2023-01-21T05:40:18.882Z,16.13
2023-01-21T05:42:46.703Z,14.70
2023-01-21T05:45:13.453Z,21.25
2023-01-21T05:47:40.304Z,17.70
2023-01-21T05:50:07.326Z,19.48
2023-01-21T05:52:33.717Z,15.85
2023-01-21T05:55:02.814Z,18.95
2023-01-21T05:57:30.268Z,15.07
2023-01-21T05:59:56.885Z,14.90
2023-01-21T06:02:24.675Z,13.10
2023-01-21T06:04:51.165Z,12.52
2023-01-21T06:07:17.716Z,14.90
2023-01-21T06:09:44.222Z,13.55
2023-01-21T06:12:10.647Z,13.32
2023-01-21T06:14:37.057Z,10.20
2023-01-21T06:17:03.573Z,13.40
2023-01-21T06:19:29.989Z,13.82
2023-01-21T06:21:56.369Z,12.18
2023-01-21T06:24:22.805Z,13.95
2023-01-21T06:26:49.234Z,12.75
2023-01-21T06:29:15.685Z,16.25
2023-01-21T06:31:42.289Z,13.80
2023-01-21T06:34:12.481Z,14.02
2023-01-21T06:36:40.814Z,17.38
2023-01-21T06:39:07.330Z,17.05
2023-01-21T06:41:33.817Z,26.23
2023-01-21T06:44:00.261Z,15.93
2023-01-21T06:46:26.717Z,23.10
2023-01-21T06:48:54.270Z,20.73
2023-01-21T06:51:20.808Z,22.88
2023-01-21T06:53:47.280Z,21.90
2023-01-21T06:56:13.657Z,18.83
2023-01-21T06:58:40.143Z,18.77
2023-01-21T07:01:06.552Z,16.70
2023-01-21T07:03:33.005Z,15.73
2023-01-21T07:05:59.587Z,20.05
2023-01-21T07:08:25.976Z,12.85
2023-01-21T07:10:52.479Z,13.75
2023-01-21T07:13:18.887Z,53.10
2023-01-21T07:15:45.315Z,55.78
2023-01-21T07:18:11.765Z,73.15
2023-01-21T07:20:40.918Z,36.60
2023-01-21T07:23:07.432Z,34.35
2023-01-21T07:25:36.028Z,29.20
2023-01-21T07:28:02.463Z,25.15
2023-01-21T07:30:34.883Z,14.68
2023-01-21T07:33:08.877Z,17.17
2023-01-21T07:35:36.061Z,15.20
2023-01-21T07:38:04.821Z,17.42
2023-01-21T07:40:31.250Z,17.58
2023-01-21T07:42:57.745Z,13.07
2023-01-21T07:45:24.770Z,15.82
2023-01-21T07:47:51.228Z,11.10
2023-01-21T07:50:17.767Z,13.63
2023-01-21T07:52:44.221Z,10.05
2023-01-21T07:55:12.564Z,14.32
2023-01-21T07:57:39.323Z,13.45
2023-01-21T08:00:06.952Z,12.15
2023-01-21T08:02:33.515Z,12.82
2023-01-21T08:05:00.044Z,17.50
2023-01-21T08:07:26.459Z,15.05
2023-01-21T08:09:52.926Z,20.55
2023-01-21T08:12:19.338Z,10.43
2023-01-21T08:14:45.771Z,15.02
2023-01-21T08:17:12.229Z,14.65
2023-01-21T08:19:38.623Z,11.60
2023-01-21T08:22:05.134Z,12.23
2023-01-21T08:24:31.699Z,11.27
2023-01-21T08:26:59.286Z,15.60
2023-01-21T08:29:26.712Z,11.25
2023-01-21T08:31:53.619Z,11.75
2023-01-21T08:34:20.218Z,13.90
2023-01-21T08:36:46.802Z,12.93
2023-01-21T08:39:15.645Z,12.02
2023-01-21T08:41:44.154Z,13.70
2023-01-21T08:44:10.662Z,13.02
2023-01-21T08:46:37.118Z,13.38
2023-01-21T08:49:03.750Z,11.25
2023-01-21T08:51:30.205Z,11.38
2023-01-21T08:53:56.658Z,9.07
2023-01-21T08:56:23.110Z,15.60
2023-01-21T08:58:54.457Z,25.63
2023-01-21T09:01:21.039Z,19.83
2023-01-21T09:03:47.584Z,15.52
2023-01-21T09:06:14.018Z,10.35
2023-01-21T09:08:41.988Z,12.93
2023-01-21T09:11:09.242Z,13.40
2023-01-21T09:13:38.625Z,8.80
2023-01-21T09:16:13.658Z,15.07
2023-01-21T09:18:41.015Z,10.98
2023-01-21T09:21:08.804Z,11.73
2023-01-21T09:23:39.902Z,14.38
2023-01-21T09:26:21.243Z,12.48
2023-01-21T09:28:57.932Z,16.08
2023-01-21T09:31:25.817Z,9.55
2023-01-21T09:33:55.733Z,11.73
2023-01-21T09:36:24.681Z,11.75
2023-01-21T09:38:51.969Z,10.20
2023-01-21T09:41:54.867Z,12.00
2023-01-21T09:44:29.976Z,14.90
2023-01-21T09:47:03.861Z,15.20
2023-01-21T09:49:30.194Z,11.98
2023-01-21T09:52:37.744Z,13.43
2023-01-21T09:55:12.119Z,10.55
2023-01-21T09:58:02.062Z,13.15
2023-01-21T10:00:34.159Z,13.23
2023-01-21T10:03:23.227Z,8.77
2023-01-21T10:05:52.702Z,12.32
2023-01-21T10:08:33.351Z,13.30
2023-01-21T10:11:18.980Z,11.82
2023-01-21T10:14:00.574Z,12.55
2023-01-21T10:16:44.949Z,11.38
2023-01-21T10:19:22.847Z,13.43
2023-01-21T10:21:56.987Z,13.25
2023-01-21T10:24:36.934Z,11.13
2023-01-21T10:27:03.534Z,10.27
2023-01-21T10:29:32.747Z,11.77
2023-01-21T10:32:09.668Z,11.27
2023-01-21T10:34:44.714Z,13.63
2023-01-21T10:37:36.933Z,16.02
2023-01-21T10:40:41.562Z,10.82
2023-01-21T10:43:18.020Z,9.32
2023-01-21T10:46:13.792Z,10.80
2023-01-21T10:48:55.194Z,18.42
2023-01-21T10:51:43.872Z,10.95
2023-01-21T10:54:18.993Z,11.15
2023-01-21T10:57:11.946Z,14.43
2023-01-21T10:59:40.242Z,12.90
2023-01-21T11:02:10.061Z,12.05
2023-01-21T11:04:39.809Z,11.20
2023-01-21T11:07:09.603Z,16.55
2023-01-21T11:09:44.169Z,10.63
2023-01-21T11:12:19.387Z,10.35
2023-01-21T11:15:16.993Z,13.55
2023-01-21T11:17:46.276Z,9.80
2023-01-21T11:20:45.027Z,8.70
2023-01-21T11:23:27.286Z,13.82
2023-01-21T11:26:01.691Z,12.38
2023-01-21T11:28:30.480Z,11.65
2023-01-21T11:31:12.472Z,9.60
2023-01-21T11:33:46.627Z,13.70
2023-01-21T11:36:31.651Z,10.45
2023-01-21T11:39:05.114Z,12.05
2023-01-21T11:41:32.183Z,11.77
2023-01-21T11:44:38.902Z,15.30
2023-01-21T11:47:29.315Z,11.85
2023-01-21T11:50:03.185Z,13.60
2023-01-21T11:52:29.644Z,12.18
2023-01-21T11:54:56.113Z,11.70
2023-01-21T11:57:40.755Z,20.33
2023-01-21T12:00:18.064Z,39.80
2023-01-21T12:02:49.292Z,23.27
2023-01-21T12:05:32.472Z,28.35
2023-01-21T12:07:59.899Z,9.30
2023-01-21T12:10:35.897Z,15.52
2023-01-21T12:13:11.011Z,12.48
2023-01-21T12:15:51.594Z,10.07
2023-01-21T12:18:42.930Z,12.13
2023-01-21T12:21:39.488Z,7.15
2023-01-21T12:24:17.983Z,9.52
2023-01-21T12:26:48.966Z,12.38
2023-01-21T12:29:50.036Z,10.82
2023-01-21T12:32:28.249Z,9.50
2023-01-21T12:35:08.523Z,8.32
2023-01-21T12:38:10.565Z,8.15
2023-01-21T12:40:45.358Z,10.18
2023-01-21T12:43:35.316Z,12.02
2023-01-21T12:46:11.683Z,15.05
2023-01-21T12:48:43.834Z,27.60
2023-01-21T12:51:18.521Z,21.05
2023-01-21T12:53:53.184Z,30.02
2023-01-21T12:56:40.674Z,12.18
2023-01-21T12:59:33.655Z,12.98
2023-01-21T13:02:25.185Z,8.80
2023-01-21T13:05:07.538Z,11.55
2023-01-21T13:08:04.119Z,8.43
2023-01-21T13:10:44.096Z,11.70
2023-01-21T13:13:34.554Z,12.20
2023-01-21T13:16:06.997Z,17.98
2023-01-21T13:18:41.415Z,13.02
2023-01-21T13:21:26.376Z,38.97
2023-01-21T13:24:07.006Z,24.38
2023-01-21T13:26:36.490Z,22.33
2023-01-21T13:29:15.786Z,18.33
2023-01-21T13:31:51.510Z,19.70
2023-01-21T13:34:34.012Z,16.35
2023-01-21T13:37:03.369Z,16.33
2023-01-21T13:39:49.491Z,18.75
2023-01-21T13:42:31.220Z,9.70
2023-01-21T13:47:44.084Z,11.48
2023-01-21T13:50:24.166Z,14.65
2023-01-21T13:53:17.918Z,9.93
2023-01-21T13:56:16.825Z,14.23
2023-01-21T13:58:48.046Z,13.73
2023-01-21T14:01:44.414Z,13.15
2023-01-21T14:04:41.939Z,11.63
2023-01-21T14:07:33.423Z,13.05
2023-01-21T14:10:09.416Z,10.30
2023-01-21T14:13:13.200Z,12.93
2023-01-21T14:16:04.523Z,9.90
2023-01-21T14:18:41.493Z,12.13
2023-01-21T14:21:08.033Z,10.38
2023-01-21T14:24:02.520Z,10.50
2023-01-21T14:26:35.312Z,13.45
2023-01-21T14:29:18.940Z,19.27
2023-01-21T14:31:55.545Z,10.68
2023-01-21T14:34:28.432Z,11.23
2023-01-21T14:37:12.445Z,14.73
2023-01-21T14:40:07.016Z,7.30
2023-01-21T14:42:42.594Z,14.40
2023-01-21T14:45:09.698Z,13.57
2023-01-21T14:47:39.919Z,12.10
2023-01-21T14:50:08.908Z,8.73
2023-01-21T14:52:43.256Z,10.48
2023-01-21T14:55:36.693Z,9.18
2023-01-21T14:58:03.509Z,12.30
2023-01-21T15:00:37.631Z,8.30
2023-01-21T15:03:27.596Z,8.65
2023-01-21T15:06:09.576Z,8.52
2023-01-21T15:08:45.839Z,12.75
2023-01-21T15:11:40.555Z,9.70
2023-01-21T15:14:30.856Z,11.00
2023-01-21T15:17:00.823Z,12.13
2023-01-21T15:19:34.953Z,9.57
2023-01-21T15:22:01.711Z,9.90
2023-01-21T15:24:32.397Z,12.77
2023-01-21T15:27:22.357Z,12.27
2023-01-21T15:29:54.807Z,22.88
2023-01-21T15:32:49.342Z,17.85
2023-01-21T15:35:35.285Z,20.13
2023-01-21T15:38:28.145Z,16.67
2023-01-21T15:41:34.755Z,23.88
2023-01-21T15:44:16.331Z,18.42
2023-01-21T15:46:58.115Z,17.05
2023-01-21T15:49:59.160Z,22.38
2023-01-21T15:52:47.859Z,19.57
2023-01-21T15:55:39.293Z,21.13
2023-01-21T15:58:44.672Z,19.58
2023-01-21T16:01:35.405Z,14.13
2023-01-21T16:04:27.548Z,13.93
2023-01-21T16:07:09.604Z,22.88
2023-01-21T16:09:53.783Z,16.15
2023-01-21T16:12:29.870Z,13.18
2023-01-21T16:15:18.760Z,11.07
2023-01-21T16:17:51.768Z,12.15
2023-01-21T16:20:51.731Z,19.90
2023-01-21T16:23:26.952Z,19.40
2023-01-21T16:26:00.076Z,12.68
2023-01-21T16:28:40.649Z,11.73
2023-01-21T16:31:17.039Z,15.73
2023-01-21T16:33:43.793Z,11.30
2023-01-21T16:36:14.170Z,11.90
2023-01-21T16:38:42.921Z,10.68
2023-01-21T16:41:15.419Z,10.18
2023-01-21T16:44:18.352Z,10.13
2023-01-21T16:46:46.204Z,10.48
2023-01-21T16:49:17.762Z,8.40
2023-01-21T16:54:35.456Z,10.40
2023-01-21T16:57:17.220Z,13.70
2023-01-21T17:02:25.000Z,21.25
2023-01-21T17:04:59.642Z,29.30
2023-01-21T17:07:31.438Z,30.55
2023-01-21T17:10:15.915Z,27.27
2023-01-21T17:12:47.689Z,33.75
2023-01-21T17:15:26.428Z,26.73
2023-01-21T17:17:56.985Z,37.35
2023-01-21T17:20:41.721Z,44.72
2023-01-21T17:23:24.398Z,43.35
2023-01-21T17:26:01.058Z,36.78
2023-01-21T17:28:37.256Z,33.95
2023-01-21T17:31:16.052Z,20.13
2023-01-21T17:34:03.212Z,27.42
2023-01-21T17:36:37.783Z,27.45
2023-01-21T17:39:06.784Z,21.67
2023-01-21T17:41:37.561Z,15.35
2023-01-21T17:44:17.004Z,16.83
2023-01-21T17:46:47.955Z,15.40
2023-01-21T17:49:18.422Z,25.80
2023-01-21T17:51:47.862Z,21.73
2023-01-21T17:54:23.652Z,25.33
2023-01-21T17:56:59.203Z,26.30
2023-01-21T17:59:34.505Z,30.25
2023-01-21T18:02:09.545Z,18.60
2023-01-21T18:04:36.105Z,15.32
2023-01-21T18:07:02.832Z,11.65
2023-01-21T18:09:29.690Z,13.20
2023-01-21T18:11:57.682Z,9.60
2023-01-21T18:14:26.103Z,11.30
2023-01-21T18:16:53.697Z,9.88
2023-01-21T18:19:32.954Z,11.50
2023-01-21T18:22:01.304Z,15.15
2023-01-21T18:24:28.118Z,13.82
2023-01-21T18:26:56.777Z,20.98
2023-01-21T18:29:26.916Z,28.05
2023-01-21T18:31:53.612Z,59.28
2023-01-21T18:34:20.149Z,18.95
2023-01-21T18:36:46.694Z,11.23
2023-01-21T18:39:15.878Z,17.17
2023-01-21T18:41:42.618Z,21.00
2023-01-21T18:44:09.540Z,15.65
2023-01-21T18:46:43.129Z,20.25
2023-01-21T18:49:15.245Z,21.75
2023-01-21T18:51:41.666Z,18.08
2023-01-21T18:54:08.120Z,23.73
2023-01-21T18:56:36.056Z,18.45
2023-01-21T18:59:02.632Z,17.92
2023-01-21T19:01:29.176Z,26.63
2023-01-21T19:03:55.847Z,34.78
2023-01-21T19:06:24.704Z,31.80
2023-01-21T19:08:51.246Z,36.47
2023-01-21T19:11:18.082Z,36.30
2023-01-21T19:13:44.578Z,36.15
2023-01-21T19:16:16.869Z,44.15
2023-01-21T19:18:43.533Z,27.23
2023-01-21T19:21:10.130Z,25.08
2023-01-21T19:23:37.138Z,27.33
2023-01-21T19:26:04.744Z,26.15
2023-01-21T19:28:31.361Z,26.38
2023-01-21T19:30:58.367Z,39.17
2023-01-21T19:33:25.572Z,24.42
2023-01-21T19:35:59.279Z,32.72
2023-01-21T19:38:26.496Z,37.33
2023-01-21T19:40:54.247Z,35.85
2023-01-21T19:43:21.743Z,37.63
2023-01-21T19:45:51.068Z,36.63
2023-01-21T19:48:19.744Z,43.15
2023-01-21T19:50:46.781Z,17.48
2023-01-21T19:53:15.519Z,14.07
2023-01-21T19:55:44.260Z,17.20
2023-01-21T19:58:19.380Z,17.15
2023-01-21T20:00:51.012Z,14.77
2023-01-21T20:05:45.605Z,25.80
2023-01-21T20:08:14.880Z,27.63
2023-01-21T20:10:41.392Z,23.60
2023-01-21T20:13:12.878Z,37.03
2023-01-21T20:15:41.248Z,14.63
2023-01-21T20:18:16.817Z,17.15
2023-01-21T20:20:43.255Z,14.52
2023-01-21T20:23:14.982Z,13.95
2023-01-21T20:25:46.201Z,15.10
2023-01-21T20:28:27.565Z,14.52
2023-01-21T20:30:55.080Z,15.07
2023-01-21T20:33:23.367Z,16.20
2023-01-21T20:35:54.661Z,10.35
2023-01-21T20:38:30.527Z,15.52
2023-01-21T20:40:58.149Z,19.65
2023-01-21T20:43:24.644Z,14.50
2023-01-21T20:45:51.627Z,15.63
2023-01-21T20:48:28.338Z,11.75
2023-01-21T20:50:55.536Z,11.85
2023-01-21T20:53:22.090Z,16.98
2023-01-21T20:55:50.800Z,12.88
2023-01-21T20:58:19.398Z,24.17
2023-01-21T21:00:46.721Z,73.65
2023-01-21T21:03:16.521Z,33.67
2023-01-21T21:05:43.078Z,18.42
2023-01-21T21:08:21.702Z,21.27
2023-01-21T21:10:50.589Z,15.50
2023-01-21T21:13:18.295Z,12.80
2023-01-21T21:15:46.675Z,15.07
2023-01-21T21:18:14.439Z,22.02
2023-01-21T21:20:41.267Z,17.60
2023-01-21T21:23:09.632Z,17.38
2023-01-21T21:25:41.031Z,18.98
2023-01-21T21:28:07.487Z,22.33
2023-01-21T21:30:34.607Z,40.70
2023-01-21T21:33:01.227Z,64.97
2023-01-21T21:35:35.804Z,61.20
2023-01-21T21:38:07.784Z,51.55
2023-01-21T21:40:37.010Z,25.60
2023-01-21T21:43:22.068Z,39.95
2023-01-21T21:46:07.540Z,57.70
2023-01-21T21:48:46.133Z,46.35
2023-01-21T21:51:17.432Z,48.03
2023-01-21T21:53:45.221Z,24.75
2023-01-21T21:56:17.982Z,27.15
2023-01-21T21:58:45.029Z,24.85
2023-01-21T22:01:14.438Z,22.60
2023-01-21T22:03:41.349Z,31.27
2023-01-21T22:06:08.649Z,35.88
2023-01-21T22:08:37.011Z,35.40
2023-01-21T22:11:06.676Z,21.27
2023-01-21T22:13:37.338Z,20.35
2023-01-21T22:16:04.955Z,19.97
2023-01-21T22:18:31.940Z,17.25
2023-01-21T22:21:05.800Z,19.63
2023-01-21T22:23:34.153Z,19.13
2023-01-21T22:26:06.848Z,19.58
2023-01-21T22:28:35.263Z,20.25
2023-01-21T22:31:07.225Z,18.83
2023-01-21T22:33:34.465Z,14.90
2023-01-21T22:36:05.808Z,15.00
2023-01-21T22:38:33.981Z,17.38
2023-01-21T22:41:01.184Z,19.38
2023-01-21T22:43:28.596Z,17.90
2023-01-21T22:45:56.709Z,17.40
2023-01-21T22:48:23.447Z,14.35
2023-01-21T22:50:57.589Z,18.65
2023-01-21T22:53:25.628Z,13.98
2023-01-21T22:55:55.108Z,16.45
2023-01-21T22:58:22.191Z,16.90
2023-01-21T23:00:49.917Z,17.85
2023-01-21T23:03:16.928Z,18.08
2023-01-21T23:05:43.766Z,20.50
2023-01-21T23:08:11.098Z,16.45
2023-01-21T23:10:37.569Z,17.30
2023-01-21T23:13:03.973Z,17.00
2023-01-21T23:15:30.497Z,20.00
2023-01-21T23:17:56.943Z,22.20
2023-01-21T23:20:28.627Z,22.00
2023-01-21T23:22:56.354Z,22.70
2023-01-21T23:25:23.380Z,22.58
2023-01-21T23:27:50.124Z,28.33
2023-01-21T23:30:17.445Z,21.48
2023-01-21T23:32:44.091Z,17.25
2023-01-21T23:35:10.496Z,17.58
2023-01-21T23:37:37.562Z,22.23
2023-01-21T23:40:05.515Z,25.92
2023-01-21T23:42:32.339Z,28.38
2023-01-21T23:44:58.738Z,29.17
2023-01-21T23:47:25.152Z,25.85
2023-01-21T23:49:51.563Z,30.98
2023-01-21T23:52:17.972Z,28.52
2023-01-21T23:54:45.452Z,21.10
2023-01-21T23:57:12.735Z,18.42
2023-01-21T23:59:39.509Z,19.52
